Time;durP1;ratioP1;P1;durP2;ratioP2;P2;SDS_P1;SDS_P2;PMS_P1;PMS_P2;Temp;Humidity;BMP_temperature;BMP_pressure;BME280_temperature;BME280_humidity;BME280_pressure;Samples;Min_cycle;Max_cycle;Signal;HPM_P1;HPM_P2
2021/06/27 00:01:15;;;;;;;21.95;10.28;;;;;;;21.20;79.57;98941.77;1712439;83;20973;-72
2021/06/27 00:03:43;;;;;;;15.45;9.78;;;;;;;21.22;79.73;98933.76;1711695;82;20965;-73
2021/06/27 00:06:10;;;;;;;13.93;9.10;;;;;;;21.23;79.84;98922.73;1712948;82;21162;-73
2021/06/27 00:08:37;;;;;;;10.95;8.80;;;;;;;21.23;79.90;98918.54;1711680;82;21037;-73
2021/06/27 00:11:06;;;;;;;14.68;8.68;;;;;;;21.24;79.95;98917.34;1713873;82;21045;-72
2021/06/27 00:13:33;;;;;;;14.13;8.98;;;;;;;21.26;79.95;98914.91;1714410;83;21039;-73
2021/06/27 00:16:01;;;;;;;14.07;8.55;;;;;;;21.28;79.88;98918.11;1711689;83;21560;-73
2021/06/27 00:18:27;;;;;;;9.88;8.08;;;;;;;21.30;79.70;98924.11;1712329;83;21754;-73
2021/06/27 00:21:00;;;;;;;12.53;8.13;;;;;;;21.31;79.61;98923.52;1713831;82;21076;-73
2021/06/27 00:23:29;;;;;;;20.90;9.67;;;;;;;21.32;79.69;98925.09;1713479;82;21089;-73
2021/06/27 00:25:57;;;;;;;12.05;8.38;;;;;;;21.35;79.62;98926.48;1713046;83;21234;-73
2021/06/27 00:28:25;;;;;;;18.70;8.90;;;;;;;21.37;79.46;98938.09;1712414;83;21009;-74
2021/06/27 00:30:52;;;;;;;13.38;8.98;;;;;;;21.38;79.34;98942.47;1696175;83;21167;-73
2021/06/27 00:33:20;;;;;;;14.28;8.88;;;;;;;21.36;79.33;98943.48;1709191;83;20993;-74
2021/06/27 00:35:46;;;;;;;11.28;8.65;;;;;;;21.28;79.55;98941.92;1711398;83;21501;-73
2021/06/27 00:38:13;;;;;;;10.32;7.15;;;;;;;21.23;79.73;98942.34;1714206;83;21040;-74
2021/06/27 00:40:41;;;;;;;10.63;8.15;;;;;;;21.14;79.94;98926.78;1709626;83;21040;-73
2021/06/27 00:43:08;;;;;;;12.80;7.80;;;;;;;21.09;80.49;98919.40;1714125;83;21544;-74
2021/06/27 00:45:35;;;;;;;12.98;8.23;;;;;;;21.10;80.60;98902.81;1713033;83;21099;-73
2021/06/27 00:48:07;;;;;;;16.52;9.05;;;;;;;21.12;80.62;98899.78;1709614;83;21032;-73
2021/06/27 00:50:45;;;;;;;10.82;7.50;;;;;;;21.15;80.47;98910.78;1713962;83;21001;-73
2021/06/27 00:53:12;;;;;;;12.55;7.92;;;;;;;21.16;80.28;98915.17;1711661;83;21031;-74
2021/06/27 00:55:44;;;;;;;16.48;9.68;;;;;;;21.17;80.05;98919.58;1713615;83;21118;-74
2021/06/27 00:58:10;;;;;;;14.07;9.58;;;;;;;21.22;79.79;98926.75;1698986;83;21023;-73
2021/06/27 01:00:39;;;;;;;13.78;8.15;;;;;;;21.23;79.44;98931.14;1714155;83;20997;-73
2021/06/27 01:03:10;;;;;;;20.45;8.73;;;;;;;21.20;79.34;98926.36;1713901;83;21556;-73
2021/06/27 01:05:39;;;;;;;13.25;8.63;;;;;;;21.17;79.37;98930.78;1710644;82;20973;-74
2021/06/27 01:08:07;;;;;;;11.38;8.20;;;;;;;21.15;79.25;98927.59;1714167;82;20988;-73
2021/06/27 01:10:36;;;;;;;13.93;8.38;;;;;;;21.10;79.36;98931.59;1713850;82;21093;-73
2021/06/27 01:13:03;;;;;;;12.73;9.08;;;;;;;21.06;79.54;98930.83;1714043;82;21040;-74
2021/06/27 01:15:29;;;;;;;15.08;9.35;;;;;;;21.00;79.65;98936.03;1713000;82;21072;-73
2021/06/27 01:18:01;;;;;;;13.83;8.43;;;;;;;20.95;79.93;98947.66;1713781;82;21068;-73
2021/06/27 01:20:30;;;;;;;14.38;7.90;;;;;;;20.95;80.10;98951.84;1713993;83;21114;-73
2021/06/27 01:22:58;;;;;;;11.55;8.45;;;;;;;20.95;79.97;98954.65;1713838;83;21111;-74
2021/06/27 01:25:30;;;;;;;13.90;8.40;;;;;;;20.94;79.76;98956.45;1712762;82;21009;-73
2021/06/27 01:27:58;;;;;;;9.88;7.17;;;;;;;20.85;79.73;98954.86;1714088;83;21059;-73
2021/06/27 01:30:25;;;;;;;11.68;8.28;;;;;;;20.77;79.57;98948.49;1714132;82;21036;-73
2021/06/27 01:32:54;;;;;;;14.03;8.35;;;;;;;20.73;79.56;98945.48;1713856;83;21526;-73
2021/06/27 01:38:35;;;;;;;11.20;6.90;;;;;;;20.55;79.54;98949.14;1701798;82;20993;-73
2021/06/27 01:41:02;;;;;;;10.98;6.95;;;;;;;20.45;79.87;98954.14;1708577;83;21500;-73
2021/06/27 01:43:29;;;;;;;11.15;7.87;;;;;;;20.43;79.43;98953.96;1714047;82;21052;-73
2021/06/27 01:45:59;;;;;;;13.83;8.78;;;;;;;20.40;79.29;98959.55;1708636;83;21185;-73
2021/06/27 01:48:25;;;;;;;15.03;9.20;;;;;;;20.35;79.29;98955.14;1710116;83;21023;-73
2021/06/27 01:50:54;;;;;;;11.75;8.20;;;;;;;20.29;79.50;98958.15;1719163;83;21489;-73
2021/06/27 01:53:24;;;;;;;13.08;8.58;;;;;;;20.19;80.00;98947.98;1721660;82;20984;-74
2021/06/27 01:56:07;;;;;;;14.78;9.28;;;;;;;20.17;80.65;98951.77;1696220;83;20968;-73
2021/06/27 01:58:46;;;;;;;13.35;8.95;;;;;;;20.21;80.49;98950.38;1718503;82;21129;-73
2021/06/27 02:01:35;;;;;;;12.88;8.00;;;;;;;20.21;80.31;98957.95;1719243;82;21011;-74
2021/06/27 02:04:02;;;;;;;19.45;9.78;;;;;;;20.21;80.31;98963.55;1720636;83;21023;-74
2021/06/27 02:06:30;;;;;;;11.12;9.55;;;;;;;20.20;80.18;98968.34;1722074;82;21009;-74
2021/06/27 02:09:06;;;;;;;13.60;9.58;;;;;;;20.20;80.23;98962.74;1718327;83;21063;-74
2021/06/27 02:11:32;;;;;;;12.93;10.75;;;;;;;20.18;80.54;98968.73;1722282;82;21178;-73
2021/06/27 02:14:01;;;;;;;14.18;8.95;;;;;;;20.17;80.74;98965.75;1721816;83;21524;-73
2021/06/27 02:16:29;;;;;;;20.05;8.95;;;;;;;20.15;81.13;98970.94;1721627;82;21009;-74
2021/06/27 02:18:57;;;;;;;15.32;8.98;;;;;;;20.16;81.36;98971.75;1718249;82;20994;-73
2021/06/27 02:21:29;;;;;;;13.93;9.35;;;;;;;20.16;81.17;98973.92;1716871;83;21052;-73
2021/06/27 02:23:58;;;;;;;11.08;9.40;;;;;;;20.18;81.06;98985.52;1721540;82;20975;-74
2021/06/27 02:26:26;;;;;;;10.78;8.98;;;;;;;20.20;81.14;98989.31;1697655;83;22125;-73
2021/06/27 02:28:54;;;;;;;11.97;8.70;;;;;;;20.25;81.33;98990.93;1720422;82;21499;-73
2021/06/27 02:31:21;;;;;;;15.78;9.60;;;;;;;20.30;81.16;98991.93;1721687;83;21060;-73
2021/06/27 02:33:48;;;;;;;16.32;10.32;;;;;;;20.32;81.19;98986.71;1721615;82;21020;-73
2021/06/27 02:36:16;;;;;;;15.08;9.45;;;;;;;20.40;81.14;98984.73;1721735;83;20993;-73
2021/06/27 02:38:45;;;;;;;16.50;10.18;;;;;;;20.47;80.78;98990.92;1717834;82;21019;-73
2021/06/27 02:41:11;;;;;;;12.03;10.23;;;;;;;20.52;80.52;98996.11;1721393;83;21014;-73
2021/06/27 02:43:44;;;;;;;16.12;9.45;;;;;;;20.56;80.24;98991.30;1721707;83;21019;-73
2021/06/27 02:46:10;;;;;;;14.03;9.33;;;;;;;20.60;80.03;98994.90;1718090;83;21004;-74
2021/06/27 02:48:40;;;;;;;15.43;8.25;;;;;;;20.63;79.76;99001.67;1720872;83;21570;-73
2021/06/27 02:51:08;;;;;;;13.68;9.25;;;;;;;20.62;79.60;99004.28;1710737;83;21033;-74
2021/06/27 02:53:34;;;;;;;22.13;9.60;;;;;;;20.63;79.69;99000.28;1712302;83;21098;-74
2021/06/27 02:56:09;;;;;;;15.83;9.90;;;;;;;20.60;79.68;98998.29;1697401;83;21532;-74
2021/06/27 02:58:42;;;;;;;11.38;9.43;;;;;;;20.55;79.96;98993.31;1712682;82;21003;-74
2021/06/27 03:01:09;;;;;;;12.50;9.05;;;;;;;20.49;80.38;98994.12;1709610;83;21666;-74
2021/06/27 03:03:35;;;;;;;17.00;9.50;;;;;;;20.50;80.72;99005.50;1713930;82;21505;-73
2021/06/27 03:06:07;;;;;;;13.45;8.80;;;;;;;20.50;80.91;99004.91;1698895;83;21524;-73
2021/06/27 03:08:34;;;;;;;12.90;8.63;;;;;;;20.54;81.12;99006.28;1712787;83;21033;-73
2021/06/27 03:11:01;;;;;;;14.63;9.10;;;;;;;20.58;81.29;99008.48;1713323;83;21079;-73
2021/06/27 03:13:27;;;;;;;11.18;8.40;;;;;;;20.64;81.14;99008.27;1714239;83;21098;-73
2021/06/27 03:15:54;;;;;;;14.15;9.50;;;;;;;20.69;80.97;99001.48;1712971;82;21479;-73
2021/06/27 03:18:20;;;;;;;14.98;9.15;;;;;;;20.75;80.75;99004.06;1712135;82;21000;-73
2021/06/27 03:20:47;;;;;;;13.10;10.15;;;;;;;20.78;80.59;99009.45;1711065;82;21469;-73
2021/06/27 03:23:13;;;;;;;18.82;11.28;;;;;;;20.82;80.53;99017.25;1713688;83;21013;-73
2021/06/27 03:25:41;;;;;;;16.55;8.68;;;;;;;20.83;80.46;99024.44;1714172;82;21556;-73
2021/06/27 03:28:13;;;;;;;12.93;9.60;;;;;;;20.84;80.64;99023.84;1713971;82;21076;-73
2021/06/27 03:30:39;;;;;;;17.90;11.03;;;;;;;20.87;80.66;99023.03;1713024;82;21053;-73
2021/06/27 03:33:06;;;;;;;16.35;10.00;;;;;;;20.92;80.56;99017.83;1713822;83;20985;-73
2021/06/27 03:35:38;;;;;;;16.45;10.53;;;;;;;20.94;80.56;99018.05;1713330;82;21032;-73
2021/06/27 03:38:22;;;;;;;15.78;10.58;;;;;;;20.96;80.60;99013.66;1714391;82;21729;-73
2021/06/27 03:40:44;;;;;;;12.40;10.00;;;;;;;20.98;80.60;99009.05;1711113;83;21009;-73
2021/06/27 03:43:15;;;;;;;14.35;10.48;;;;;;;21.04;80.67;99011.63;1714084;83;21036;-73
2021/06/27 03:45:42;;;;;;;12.98;10.68;;;;;;;21.08;80.49;99008.23;1714069;83;21060;-73
2021/06/27 03:48:09;;;;;;;15.08;9.90;;;;;;;21.13;80.31;99008.41;1714102;83;21095;-72
2021/06/27 03:50:36;;;;;;;13.00;10.23;;;;;;;21.16;80.21;99002.80;1713069;82;21514;-73
2021/06/27 03:53:03;;;;;;;24.32;11.48;;;;;;;21.19;80.16;98996.19;1713871;83;21083;-73
2021/06/27 03:55:29;;;;;;;16.50;12.33;;;;;;;21.18;80.20;98990.38;1697332;83;20997;-72
2021/06/27 03:57:57;;;;;;;19.75;12.55;;;;;;;21.22;80.29;98994.75;1712853;82;21485;-73
2021/06/27 04:00:23;;;;;;;13.93;10.95;;;;;;;21.28;80.33;99000.74;1713100;83;21020;-73
2021/06/27 04:02:50;;;;;;;15.75;10.72;;;;;;;21.31;80.30;99000.55;1713359;83;21510;-73
2021/06/27 04:05:20;;;;;;;20.85;12.15;;;;;;;21.32;80.18;99003.53;1710708;82;21029;-73
2021/06/27 04:07:48;;;;;;;13.85;11.00;;;;;;;21.23;80.32;99007.57;1713974;82;21061;-73
2021/06/27 04:10:16;;;;;;;18.57;10.55;;;;;;;21.19;80.90;99003.20;1713682;82;20989;-73
2021/06/27 04:12:43;;;;;;;12.70;10.10;;;;;;;21.25;81.15;98995.95;1713114;83;21140;-73
2021/06/27 04:15:12;;;;;;;15.88;11.22;;;;;;;21.32;81.05;98987.53;1713869;82;21118;-72
2021/06/27 04:17:42;;;;;;;17.35;11.70;;;;;;;21.42;80.85;98987.87;1713984;82;21061;-73
2021/06/27 04:20:14;;;;;;;20.48;11.50;;;;;;;21.46;80.75;98988.67;1708848;82;20989;-72
2021/06/27 04:22:40;;;;;;;15.60;11.38;;;;;;;21.41;80.94;98982.87;1712962;83;21501;-73
2021/06/27 04:25:08;;;;;;;15.32;11.68;;;;;;;21.43;81.33;98986.06;1713904;82;21485;-72
2021/06/27 04:27:36;;;;;;;20.17;12.88;;;;;;;21.49;81.29;98988.66;1712475;82;21117;-73
2021/06/27 04:30:07;;;;;;;20.37;13.03;;;;;;;21.53;81.26;98983.81;1698149;83;21020;-73
2021/06/27 04:32:34;;;;;;;17.50;12.88;;;;;;;21.57;81.39;98976.80;1711223;83;21489;-73
2021/06/27 04:35:07;;;;;;;18.55;13.30;;;;;;;21.59;81.46;98971.59;1713781;82;21020;-73
2021/06/27 04:37:34;;;;;;;21.68;13.32;;;;;;;21.60;81.56;98967.56;1695438;83;21005;-73
2021/06/27 04:40:01;;;;;;;13.93;9.80;;;;;;;21.59;82.09;98968.78;1712489;83;21478;-73
2021/06/27 04:42:30;;;;;;;17.62;10.08;;;;;;;21.59;81.02;98976.38;1713943;82;21000;-73
2021/06/27 04:44:59;;;;;;;14.50;9.43;;;;;;;21.50;81.09;98975.42;1697263;83;21016;-73
2021/06/27 04:47:26;;;;;;;17.25;7.90;;;;;;;21.47;80.87;98979.05;1714047;83;21516;-73
2021/06/27 04:49:55;;;;;;;14.10;7.40;;;;;;;21.40;80.01;98975.09;1705180;82;21056;-72
2021/06/27 04:52:26;;;;;;;15.35;7.62;;;;;;;21.32;80.02;98979.72;1725718;82;21965;-74
2021/06/27 04:54:55;;;;;;;8.63;6.20;;;;;;;21.35;80.60;98978.91;1722857;83;20996;-73
2021/06/27 04:57:26;;;;;;;9.73;5.83;;;;;;;21.42;80.21;98983.67;1702718;83;21043;-73
2021/06/27 04:59:56;;;;;;;11.93;5.65;;;;;;;21.38;79.42;98983.69;1727031;83;21508;-73
2021/06/27 05:02:22;;;;;;;7.95;5.83;;;;;;;21.34;79.40;98994.91;1727220;82;21075;-74
2021/06/27 05:04:49;;;;;;;8.08;4.97;;;;;;;21.37;79.63;99000.31;1727028;82;21167;-72
2021/06/27 05:07:15;;;;;;;8.80;4.90;;;;;;;21.46;79.92;99001.28;1724913;82;21539;-73
2021/06/27 05:09:42;;;;;;;7.33;5.15;;;;;;;21.59;80.06;99005.22;1726838;82;21052;-73
2021/06/27 05:12:10;;;;;;;9.05;4.78;;;;;;;21.75;80.02;99013.75;1726639;82;21063;-72
2021/06/27 05:14:36;;;;;;;8.45;5.40;;;;;;;21.87;79.66;99018.11;1721818;83;21043;-73
2021/06/27 05:17:03;;;;;;;11.05;5.17;;;;;;;21.98;79.29;99029.23;1724492;83;21156;-73
2021/06/27 05:19:30;;;;;;;10.08;5.40;;;;;;;22.08;79.22;99035.38;1721520;82;21044;-73
2021/06/27 05:21:56;;;;;;;9.90;4.90;;;;;;;22.19;79.13;99044.33;1727031;82;21528;-72
2021/06/27 05:24:22;;;;;;;8.53;4.97;;;;;;;22.28;78.68;99046.05;1726906;82;21513;-72
2021/06/27 05:26:49;;;;;;;8.50;5.37;;;;;;;22.37;78.27;99059.02;1726341;83;21035;-73
2021/06/27 05:29:18;;;;;;;6.45;3.83;;;;;;;22.46;77.42;99062.77;1726536;82;21899;-72
2021/06/27 05:31:45;;;;;;;9.30;4.10;;;;;;;22.53;76.88;99063.31;1721223;83;21074;-72
2021/06/27 05:34:11;;;;;;;12.73;4.62;;;;;;;22.61;76.36;99068.28;1724434;82;21119;-73
2021/06/27 05:36:44;;;;;;;9.80;5.95;;;;;;;22.66;76.26;99065.63;1697179;83;21489;-73
2021/06/27 05:39:11;;;;;;;11.85;6.95;;;;;;;22.72;76.02;99056.97;1699719;83;21480;-73
2021/06/27 05:41:39;;;;;;;14.87;6.83;;;;;;;22.79;75.38;99060.32;1709059;82;22011;-72
2021/06/27 05:44:07;;;;;;;7.55;5.53;;;;;;;22.83;75.03;99067.48;1701257;82;21032;-73
2021/06/27 05:46:34;;;;;;;10.05;6.37;;;;;;;22.86;74.44;99067.25;1722764;82;21051;-72
2021/06/27 05:49:08;;;;;;;15.10;6.30;;;;;;;22.92;74.06;99061.99;1726005;82;20996;-72
2021/06/27 05:51:44;;;;;;;8.90;6.10;;;;;;;22.99;73.89;99060.52;1699862;83;21068;-73
2021/06/27 05:54:12;;;;;;;9.80;5.83;;;;;;;23.04;73.88;99060.07;1712427;83;21222;-72
2021/06/27 05:56:40;;;;;;;10.03;5.42;;;;;;;23.05;73.95;99048.21;1713544;82;21588;-72
2021/06/27 05:59:07;;;;;;;7.75;5.17;;;;;;;23.10;73.80;99059.80;1713737;83;21167;-72
2021/06/27 06:01:35;;;;;;;9.58;4.75;;;;;;;23.10;73.61;99062.61;1709392;83;20957;-73
2021/06/27 06:04:04;;;;;;;4.87;3.98;;;;;;;23.06;72.46;99056.25;1713989;82;21052;-73
2021/06/27 06:06:32;;;;;;;3.75;3.42;;;;;;;23.10;72.66;99050.56;1708609;83;21500;-73
2021/06/27 06:08:59;;;;;;;7.15;3.75;;;;;;;23.21;72.05;99042.03;1714001;81;21508;-72
2021/06/27 06:11:27;;;;;;;4.90;3.72;;;;;;;23.21;70.47;99035.81;1713947;83;21017;-72
2021/06/27 06:13:58;;;;;;;14.30;4.00;;;;;;;23.12;70.80;99034.69;1714037;82;21028;-74
2021/06/27 06:16:24;;;;;;;8.18;3.85;;;;;;;23.13;70.92;99027.88;1714215;83;21039;-72
2021/06/27 06:18:56;;;;;;;6.33;3.70;;;;;;;23.25;71.15;99030.16;1710455;83;21036;-72
2021/06/27 06:21:29;;;;;;;7.03;3.37;;;;;;;23.44;69.58;99033.58;1713715;82;20998;-73
2021/06/27 06:23:56;;;;;;;8.48;3.70;;;;;;;23.55;69.51;99028.61;1710007;83;28231;-73
2021/06/27 06:26:22;;;;;;;12.53;3.25;;;;;;;23.79;69.16;99030.70;1713944;83;21513;-74
2021/06/27 06:28:55;;;;;;;13.45;4.05;;;;;;;24.04;68.65;99038.77;1708944;82;21013;-72
2021/06/27 06:31:23;;;;;;;11.30;3.52;;;;;;;24.31;68.12;99040.80;1714051;82;21279;-73
2021/06/27 06:33:49;;;;;;;10.70;3.87;;;;;;;24.36;65.19;99028.89;1714273;83;21059;-73
2021/06/27 06:36:18;;;;;;;6.58;3.42;;;;;;;24.39;65.09;99028.02;1708525;82;21081;-73
2021/06/27 06:38:45;;;;;;;6.45;3.85;;;;;;;24.35;64.05;99028.68;1714046;82;21500;-73
2021/06/27 06:41:11;;;;;;;6.62;3.80;;;;;;;24.16;63.75;99025.33;1713945;83;21013;-73
2021/06/27 06:43:44;;;;;;;7.22;4.67;;;;;;;23.91;64.00;99013.26;1710907;82;21844;-73
2021/06/27 06:46:11;;;;;;;6.12;4.10;;;;;;;23.87;65.06;99015.31;1703025;82;21540;-72
2021/06/27 06:48:41;;;;;;;12.20;3.95;;;;;;;23.95;65.12;99008.98;1698832;83;21032;-76
2021/06/27 06:51:08;;;;;;;8.58;3.83;;;;;;;24.03;65.50;99016.09;1692132;82;21009;-73
2021/06/27 06:53:35;;;;;;;11.38;4.05;;;;;;;24.14;65.33;99015.91;1695595;82;21063;-73
2021/06/27 06:56:10;;;;;;;11.90;4.12;;;;;;;24.26;64.21;99014.55;1713946;82;21221;-74
2021/06/27 06:58:38;;;;;;;6.55;3.67;;;;;;;24.25;63.86;99016.38;1709145;83;21091;-73
2021/06/27 07:01:04;;;;;;;5.70;4.05;;;;;;;24.19;63.28;99020.31;1695913;83;21052;-73
2021/06/27 07:03:31;;;;;;;7.10;3.95;;;;;;;24.15;63.58;99009.68;1713109;82;21048;-73
2021/06/27 07:06:02;;;;;;;7.10;3.60;;;;;;;24.23;64.39;99013.19;1713836;82;21504;-74
2021/06/27 07:08:33;;;;;;;10.90;3.75;;;;;;;24.31;63.79;99005.63;1707630;82;21140;-73
2021/06/27 07:11:02;;;;;;;7.17;3.62;;;;;;;24.38;63.61;99003.30;1698291;83;21525;-73
2021/06/27 07:13:35;;;;;;;6.25;3.55;;;;;;;24.50;63.75;99001.89;1691362;83;21484;-73
2021/06/27 07:16:03;;;;;;;12.13;4.58;;;;;;;24.68;63.63;99002.97;1714998;83;21018;-73
2021/06/27 07:18:30;;;;;;;6.05;3.58;;;;;;;24.81;63.09;99002.35;1714059;82;21017;-73
2021/06/27 07:21:01;;;;;;;7.35;4.12;;;;;;;24.91;62.13;98993.55;1701614;83;21622;-71
2021/06/27 07:23:31;;;;;;;7.00;3.42;;;;;;;24.88;61.71;98990.16;1712493;82;21000;-74
2021/06/27 07:25:57;;;;;;;8.38;3.85;;;;;;;24.94;61.86;98995.52;1713519;82;21045;-74
2021/06/27 07:28:29;;;;;;;7.75;3.87;;;;;;;24.92;59.77;98990.92;1713731;82;21017;-73
2021/06/27 07:31:01;;;;;;;7.08;3.95;;;;;;;24.97;60.89;98998.88;1713860;82;21478;-73
2021/06/27 07:33:27;;;;;;;6.75;3.70;;;;;;;25.14;61.35;98996.13;1713853;83;21446;-73
2021/06/27 07:35:55;;;;;;;5.33;3.62;;;;;;;25.31;60.19;98991.36;1714251;82;21001;-73
2021/06/27 07:38:22;;;;;;;6.85;4.83;;;;;;;25.38;60.77;98989.00;1714251;83;21492;-72
2021/06/27 07:40:50;;;;;;;7.05;4.17;;;;;;;25.48;58.87;98975.30;1689569;83;21047;-72
2021/06/27 07:43:18;;;;;;;6.03;3.75;;;;;;;25.35;58.44;98970.14;1714429;82;21032;-73
2021/06/27 07:45:46;;;;;;;7.62;3.67;;;;;;;25.31;58.59;98971.63;1685461;85;21195;-73
2021/06/27 07:51:07;;;;;;;6.20;3.45;;;;;;;25.35;58.82;98953.23;1710753;83;21155;-73
2021/06/27 07:53:35;;;;;;;10.58;3.27;;;;;;;25.44;58.27;98955.44;1713766;82;21043;-72
2021/06/27 07:56:03;;;;;;;7.12;3.58;;;;;;;25.57;59.20;98949.94;1713431;83;21036;-72
2021/06/27 07:58:30;;;;;;;7.17;3.22;;;;;;;25.73;59.37;98950.59;1712209;82;21496;-72
2021/06/27 08:01:01;;;;;;;6.33;4.10;;;;;;;25.82;59.52;98949.37;1708548;83;21489;-72
2021/06/27 08:03:27;;;;;;;7.08;3.42;;;;;;;25.92;60.66;98943.30;1713963;82;21045;-73
2021/06/27 08:05:55;;;;;;;7.90;3.30;;;;;;;26.03;59.45;98940.83;1713936;82;21529;-72
2021/06/27 08:08:25;;;;;;;9.68;3.22;;;;;;;25.97;56.57;98948.41;1713268;82;20977;-72
2021/06/27 08:10:52;;;;;;;5.53;2.52;;;;;;;25.91;57.25;98953.61;1714041;82;21181;-72
2021/06/27 08:13:21;;;;;;;7.83;3.37;;;;;;;25.94;57.52;98945.67;1714045;82;21008;-72
2021/06/27 08:15:48;;;;;;;6.12;3.10;;;;;;;26.03;57.83;98946.47;1713020;82;21064;-72
2021/06/27 08:18:14;;;;;;;4.78;3.60;;;;;;;26.15;57.98;98941.55;1713525;83;21012;-72
2021/06/27 08:20:44;;;;;;;4.25;3.33;;;;;;;26.24;58.22;98937.46;1713506;82;20990;-72
2021/06/27 08:23:13;;;;;;;6.62;3.22;;;;;;;26.37;57.52;98929.72;1713565;83;21793;-71
2021/06/27 08:25:42;;;;;;;3.87;3.08;;;;;;;26.45;56.72;98932.53;1709587;83;21021;-73
2021/06/27 08:28:09;;;;;;;6.00;4.28;;;;;;;26.56;55.70;98925.80;1713905;82;21051;-72
2021/06/27 08:30:36;;;;;;;3.75;3.37;;;;;;;26.65;57.07;98926.58;1703575;83;21506;-72
2021/06/27 08:33:04;;;;;;;6.87;3.58;;;;;;;26.73;57.38;98924.49;1713409;82;21573;-73
2021/06/27 08:35:31;;;;;;;5.40;4.00;;;;;;;26.73;56.43;98930.14;1711325;83;21568;-73
2021/06/27 08:37:57;;;;;;;4.85;3.55;;;;;;;26.69;56.93;98925.23;1707520;84;21067;-72
2021/06/27 08:40:27;;;;;;;10.53;4.67;;;;;;;26.67;56.07;98917.81;1708202;83;21529;-72
2021/06/27 08:42:54;;;;;;;14.00;4.35;;;;;;;26.74;58.16;98919.65;1708031;84;21509;-71
2021/06/27 08:45:20;;;;;;;8.28;4.42;;;;;;;26.88;58.97;98917.05;1706037;83;21096;-73
2021/06/27 08:47:53;;;;;;;7.22;4.65;;;;;;;26.97;58.91;98914.98;1703773;83;21901;-72
2021/06/27 08:50:20;;;;;;;6.25;4.35;;;;;;;27.09;59.32;98914.87;1712564;83;21087;-73
2021/06/27 08:52:46;;;;;;;4.55;4.08;;;;;;;27.26;58.64;98920.42;1712605;83;21005;-73
2021/06/27 08:55:17;;;;;;;9.90;3.98;;;;;;;27.32;57.42;98912.96;1712549;83;21816;-75
2021/06/27 08:57:43;;;;;;;5.65;3.30;;;;;;;27.29;56.09;98913.87;1712913;83;20985;-73
2021/06/27 09:00:11;;;;;;;7.80;3.47;;;;;;;27.30;55.92;98913.41;1712318;83;21144;-73
2021/06/27 09:02:38;;;;;;;8.03;4.25;;;;;;;27.29;55.29;98906.80;1712661;82;20973;-71
2021/06/27 09:05:09;;;;;;;6.53;3.67;;;;;;;27.30;55.08;98906.96;1706691;83;21000;-73
2021/06/27 09:07:38;;;;;;;6.95;3.02;;;;;;;27.26;55.14;98914.77;1707957;83;21061;-73
2021/06/27 09:10:19;;;;;;;9.48;3.98;;;;;;;27.22;54.74;98911.44;1712530;83;21092;-72
2021/06/27 09:12:59;;;;;;;8.05;3.80;;;;;;;27.16;54.96;98907.56;1697733;82;21441;-72
2021/06/27 09:15:50;;;;;;;4.05;3.42;;;;;;;27.22;55.52;98899.33;1693655;83;20993;-72
2021/06/27 09:18:22;;;;;;;6.85;5.25;;;;;;;27.26;56.85;98897.17;1685382;83;21540;-72
2021/06/27 09:20:55;;;;;;;5.75;4.75;;;;;;;27.30;56.99;98899.28;1685387;85;21087;-73
2021/06/27 09:23:40;;;;;;;10.08;5.08;;;;;;;27.38;57.44;98895.59;1711037;83;22200;-71
2021/06/27 09:26:07;;;;;;;12.43;5.45;;;;;;;27.43;58.96;98895.03;1713365;82;21297;-72
2021/06/27 09:28:49;;;;;;;13.48;5.90;;;;;;;27.49;58.55;98901.54;1702346;83;21072;-72
2021/06/27 09:31:40;;;;;;;14.35;5.62;;;;;;;27.55;58.19;98902.58;1702054;83;21084;-73
2021/06/27 09:34:13;;;;;;;10.30;6.05;;;;;;;27.58;58.87;98912.98;1708889;83;21029;-73
2021/06/27 09:36:49;;;;;;;6.65;4.90;;;;;;;27.56;59.78;98911.22;1712578;83;21075;-74
2021/06/27 09:39:16;;;;;;;11.20;5.80;;;;;;;27.56;60.10;98913.44;1695802;83;21044;-73
2021/06/27 09:41:53;;;;;;;7.10;5.05;;;;;;;27.61;58.86;98919.75;1708970;83;21033;-72
2021/06/27 09:44:21;;;;;;;6.50;5.22;;;;;;;27.62;60.09;98922.12;1713408;83;21021;-73
2021/06/27 09:46:53;;;;;;;7.67;4.20;;;;;;;27.60;58.12;98923.22;1713595;83;21053;-72
2021/06/27 09:49:29;;;;;;;;;;;;;;;27.46;59.15;98926.67;1716631;83;21493;-72
2021/06/27 09:52:01;;;;;;;8.55;5.45;;;;;;;27.45;58.51;98934.97;1676270;85;20771;-73
2021/06/27 09:54:32;;;;;;;12.10;4.67;;;;;;;27.48;59.35;98946.02;1706646;83;21036;-72
2021/06/27 09:56:59;;;;;;;6.47;5.12;;;;;;;27.64;59.98;98947.13;1708850;83;21059;-72
2021/06/27 09:59:42;;;;;;;6.00;4.33;;;;;;;27.76;58.15;98947.79;1712802;83;21032;-75
2021/06/27 10:02:09;;;;;;;6.33;4.47;;;;;;;27.85;57.87;98949.94;1713502;82;21036;-71
2021/06/27 10:04:40;;;;;;;9.83;4.95;;;;;;;27.89;56.88;98953.46;1713669;82;21044;-71
2021/06/27 10:07:07;;;;;;;13.88;3.83;;;;;;;27.86;57.11;98954.34;1713437;82;21093;-72
2021/06/27 10:09:39;;;;;;;7.35;4.12;;;;;;;27.90;57.70;98959.28;1713456;83;21063;-72
2021/06/27 10:12:19;;;;;;;5.95;3.45;;;;;;;27.95;57.02;98951.63;1705560;83;21053;-71
2021/06/27 10:14:55;;;;;;;5.90;3.83;;;;;;;27.94;56.25;98962.77;1709343;83;21485;-72
2021/06/27 10:17:26;;;;;;;6.65;4.40;;;;;;;27.92;56.10;98969.53;1712957;82;21563;-72
2021/06/27 10:19:55;;;;;;;8.18;4.85;;;;;;;27.84;57.01;98969.59;1713188;82;21060;-73
2021/06/27 10:22:26;;;;;;;5.40;4.30;;;;;;;27.77;56.49;98975.47;1713042;82;21052;-72
2021/06/27 10:24:54;;;;;;;5.78;4.75;;;;;;;27.73;57.28;98978.41;1713956;82;21553;-73
2021/06/27 10:27:25;;;;;;;8.33;4.97;;;;;;;27.74;57.43;98979.20;1707530;83;21024;-72
2021/06/27 10:29:51;;;;;;;6.33;4.50;;;;;;;27.70;56.33;98980.12;1700715;83;21176;-73
2021/06/27 10:32:20;;;;;;;5.45;4.08;;;;;;;27.67;56.81;98978.78;1712820;83;21032;-73
2021/06/27 10:34:48;;;;;;;7.05;4.78;;;;;;;27.70;56.88;98985.77;1709316;83;21087;-71
2021/06/27 10:37:41;;;;;;;4.30;3.45;;;;;;;27.66;56.89;98985.05;1712808;83;20978;-73
2021/06/27 10:40:12;;;;;;;7.63;3.87;;;;;;;27.73;56.98;98986.89;1691759;83;20941;-73
2021/06/27 10:43:00;;;;;;;5.67;3.85;;;;;;;27.90;56.55;98981.91;1713815;82;21474;-72
2021/06/27 10:45:54;;;;;;;4.92;4.17;;;;;;;27.94;55.28;98974.09;1708039;82;21116;-72
2021/06/27 10:48:35;;;;;;;11.05;5.03;;;;;;;27.82;55.53;98985.58;1701565;83;21040;-72
2021/06/27 10:51:09;;;;;;;11.20;4.90;;;;;;;27.52;55.97;98986.91;1711924;83;21017;-72
2021/06/27 10:54:14;;;;;;;7.00;4.58;;;;;;;27.29;56.54;98988.17;1697016;83;21020;-71
2021/06/27 10:57:07;;;;;;;10.35;5.10;;;;;;;27.07;56.73;98986.58;1712217;83;21089;-74
2021/06/27 10:59:51;;;;;;;6.03;3.95;;;;;;;26.91;57.51;98988.80;1710522;83;20981;-73
2021/06/27 11:02:32;;;;;;;7.53;4.20;;;;;;;26.82;58.90;98993.06;1709697;83;21017;-74
2021/06/27 11:05:33;;;;;;;5.40;4.30;;;;;;;26.89;57.69;98992.69;1711624;83;21040;-73
2021/06/27 11:08:00;;;;;;;8.45;5.60;;;;;;;26.88;57.71;98994.73;1711471;83;21520;-72
2021/06/27 11:10:28;;;;;;;8.25;4.95;;;;;;;26.88;57.63;98998.17;1714122;82;21061;-73
2021/06/27 11:13:07;;;;;;;5.65;3.72;;;;;;;26.90;58.95;98999.94;1713878;82;21044;-72
2021/06/27 11:15:40;;;;;;;6.35;4.03;;;;;;;27.14;59.99;98995.48;1711087;83;21009;-74
2021/06/27 11:18:11;;;;;;;4.75;3.60;;;;;;;27.42;57.49;98994.45;1708829;83;21052;-72
2021/06/27 11:20:58;;;;;;;6.30;3.92;;;;;;;27.60;57.10;98989.69;1713147;83;21617;-72
2021/06/27 11:23:51;;;;;;;10.10;4.47;;;;;;;27.76;57.38;98985.18;1702704;83;21552;-73
2021/06/27 11:26:40;;;;;;;7.83;4.42;;;;;;;27.84;55.88;98983.73;1711250;82;21095;-73
2021/06/27 11:29:33;;;;;;;5.37;3.67;;;;;;;27.89;55.37;98975.30;1707619;83;21583;-73
2021/06/27 11:32:15;;;;;;;7.28;4.20;;;;;;;27.93;55.69;98986.66;1711215;83;21032;-74
2021/06/27 11:34:55;;;;;;;8.10;4.42;;;;;;;27.89;54.80;98988.03;1712222;83;21080;-74
2021/06/27 11:37:27;;;;;;;6.05;4.28;;;;;;;27.74;55.58;98991.94;1713800;82;21117;-74
2021/06/27 11:40:03;;;;;;;4.75;3.87;;;;;;;27.58;55.72;98992.17;1710533;83;21486;-73
2021/06/27 11:42:37;;;;;;;7.95;3.60;;;;;;;27.54;55.11;98990.86;1714271;82;21020;-74
2021/06/27 11:45:18;;;;;;;6.47;4.05;;;;;;;27.44;54.85;98991.98;1713932;83;20994;-73
2021/06/27 11:47:52;;;;;;;78.45;48.90;;;;;;;27.34;55.14;98997.52;1714045;83;21477;-73
2021/06/27 11:50:24;;;;;;;12.05;6.00;;;;;;;27.19;56.04;98990.69;1713182;82;21978;-74